sensor_id;sensor_type;location;lat;lon;timestamp;P1;durP1;ratioP1;P2;durP2;ratioP2
36923;SDS011;22841;50.252;18.688;2023-05-10T00:00:43;12.82;;;7.65;;
36923;SDS011;22841;50.252;18.688;2023-05-10T00:03:10;15.77;;;7.55;;
36923;SDS011;22841;50.252;18.688;2023-05-10T00:05:36;12.27;;;7.60;;
36923;SDS011;22841;50.252;18.688;2023-05-10T00:08:02;11.40;;;6.95;;
36923;SDS011;22841;50.252;18.688;2023-05-10T00:10:28;13.63;;;8.00;;
36923;SDS011;22841;50.252;18.688;2023-05-10T00:12:54;13.10;;;7.68;;
36923;SDS011;22841;50.252;18.688;2023-05-10T00:15:20;15.57;;;8.13;;
36923;SDS011;22841;50.252;18.688;2023-05-10T00:17:46;11.85;;;6.78;;
36923;SDS011;22841;50.252;18.688;2023-05-10T00:20:12;13.48;;;7.75;;
36923;SDS011;22841;50.252;18.688;2023-05-10T00:22:38;16.15;;;7.18;;
36923;SDS011;22841;50.252;18.688;2023-05-10T00:25:05;17.00;;;8.27;;
36923;SDS011;22841;50.252;18.688;2023-05-10T00:27:31;18.15;;;8.73;;
36923;SDS011;22841;50.252;18.688;2023-05-10T00:29:57;14.32;;;8.40;;
36923;SDS011;22841;50.252;18.688;2023-05-10T00:32:23;18.83;;;8.02;;
36923;SDS011;22841;50.252;18.688;2023-05-10T00:34:49;20.55;;;8.25;;
36923;SDS011;22841;50.252;18.688;2023-05-10T00:37:16;14.75;;;8.23;;
36923;SDS011;22841;50.252;18.688;2023-05-10T00:39:42;15.55;;;7.80;;
36923;SDS011;22841;50.252;18.688;2023-05-10T00:42:08;14.23;;;7.80;;
36923;SDS011;22841;50.252;18.688;2023-05-10T00:44:34;12.13;;;7.85;;
36923;SDS011;22841;50.252;18.688;2023-05-10T00:47:00;11.30;;;6.82;;
36923;SDS011;22841;50.252;18.688;2023-05-10T00:49:26;11.30;;;7.80;;
36923;SDS011;22841;50.252;18.688;2023-05-10T00:51:52;19.45;;;9.30;;
36923;SDS011;22841;50.252;18.688;2023-05-10T00:54:18;15.90;;;7.90;;
36923;SDS011;22841;50.252;18.688;2023-05-10T00:56:45;13.18;;;7.95;;
36923;SDS011;22841;50.252;18.688;2023-05-10T00:59:17;14.45;;;7.28;;
36923;SDS011;22841;50.252;18.688;2023-05-10T01:01:44;15.45;;;8.50;;
36923;SDS011;22841;50.252;18.688;2023-05-10T01:04:14;17.77;;;8.45;;
36923;SDS011;22841;50.252;18.688;2023-05-10T01:06:40;16.08;;;8.27;;
36923;SDS011;22841;50.252;18.688;2023-05-10T01:09:07;15.27;;;8.77;;
36923;SDS011;22841;50.252;18.688;2023-05-10T01:11:34;16.02;;;8.82;;
36923;SDS011;22841;50.252;18.688;2023-05-10T01:14:02;14.70;;;8.13;;
36923;SDS011;22841;50.252;18.688;2023-05-10T01:16:29;15.63;;;9.07;;
36923;SDS011;22841;50.252;18.688;2023-05-10T01:18:59;19.33;;;9.23;;
36923;SDS011;22841;50.252;18.688;2023-05-10T01:25:17;16.85;;;9.25;;
36923;SDS011;22841;50.252;18.688;2023-05-10T01:27:35;18.08;;;9.27;;
36923;SDS011;22841;50.252;18.688;2023-05-10T01:32:59;19.50;;;10.20;;
36923;SDS011;22841;50.252;18.688;2023-05-10T01:43:48;16.77;;;9.00;;
36923;SDS011;22841;50.252;18.688;2023-05-10T01:46:37;13.00;;;8.52;;
36923;SDS011;22841;50.252;18.688;2023-05-10T01:49:08;16.40;;;9.00;;
36923;SDS011;22841;50.252;18.688;2023-05-10T01:51:47;21.58;;;8.90;;
36923;SDS011;22841;50.252;18.688;2023-05-10T01:54:17;14.38;;;8.50;;
36923;SDS011;22841;50.252;18.688;2023-05-10T01:56:47;14.18;;;8.05;;
36923;SDS011;22841;50.252;18.688;2023-05-10T01:59:18;16.77;;;8.98;;
36923;SDS011;22841;50.252;18.688;2023-05-10T02:01:45;15.73;;;8.23;;
36923;SDS011;22841;50.252;18.688;2023-05-10T02:04:14;18.42;;;9.40;;
36923;SDS011;22841;50.252;18.688;2023-05-10T02:06:43;18.52;;;9.65;;
36923;SDS011;22841;50.252;18.688;2023-05-10T02:09:10;15.25;;;9.40;;
36923;SDS011;22841;50.252;18.688;2023-05-10T02:11:38;15.18;;;8.68;;
36923;SDS011;22841;50.252;18.688;2023-05-10T02:14:07;16.05;;;8.10;;
36923;SDS011;22841;50.252;18.688;2023-05-10T02:16:36;16.60;;;8.70;;
36923;SDS011;22841;50.252;18.688;2023-05-10T02:19:04;15.80;;;8.85;;
36923;SDS011;22841;50.252;18.688;2023-05-10T02:21:31;19.95;;;9.48;;
36923;SDS011;22841;50.252;18.688;2023-05-10T02:23:59;17.60;;;9.32;;
36923;SDS011;22841;50.252;18.688;2023-05-10T02:26:27;16.20;;;9.68;;
36923;SDS011;22841;50.252;18.688;2023-05-10T02:28:54;15.13;;;8.35;;
36923;SDS011;22841;50.252;18.688;2023-05-10T02:31:22;15.88;;;8.07;;
36923;SDS011;22841;50.252;18.688;2023-05-10T02:33:49;19.23;;;8.57;;
36923;SDS011;22841;50.252;18.688;2023-05-10T02:36:16;14.02;;;8.35;;
36923;SDS011;22841;50.252;18.688;2023-05-10T02:38:43;22.42;;;9.43;;
36923;SDS011;22841;50.252;18.688;2023-05-10T02:41:11;16.15;;;9.93;;
36923;SDS011;22841;50.252;18.688;2023-05-10T02:43:37;14.55;;;9.05;;
36923;SDS011;22841;50.252;18.688;2023-05-10T02:46:06;13.18;;;8.38;;
36923;SDS011;22841;50.252;18.688;2023-05-10T02:48:32;17.88;;;8.68;;
36923;SDS011;22841;50.252;18.688;2023-05-10T02:51:00;14.90;;;8.73;;
36923;SDS011;22841;50.252;18.688;2023-05-10T02:53:33;15.73;;;8.55;;
36923;SDS011;22841;50.252;18.688;2023-05-10T02:56:10;17.23;;;8.85;;
36923;SDS011;22841;50.252;18.688;2023-05-10T02:58:39;17.73;;;9.25;;
36923;SDS011;22841;50.252;18.688;2023-05-10T03:01:05;20.77;;;8.63;;
36923;SDS011;22841;50.252;18.688;2023-05-10T03:03:33;18.85;;;8.73;;
36923;SDS011;22841;50.252;18.688;2023-05-10T03:05:59;18.27;;;9.75;;
36923;SDS011;22841;50.252;18.688;2023-05-10T03:08:25;20.50;;;8.98;;
36923;SDS011;22841;50.252;18.688;2023-05-10T03:10:58;17.58;;;9.10;;
36923;SDS011;22841;50.252;18.688;2023-05-10T03:13:54;15.75;;;9.20;;
36923;SDS011;22841;50.252;18.688;2023-05-10T03:16:41;14.75;;;8.80;;
36923;SDS011;22841;50.252;18.688;2023-05-10T03:19:26;15.88;;;8.98;;
36923;SDS011;22841;50.252;18.688;2023-05-10T03:21:57;15.93;;;9.05;;
36923;SDS011;22841;50.252;18.688;2023-05-10T03:24:29;16.45;;;10.10;;
36923;SDS011;22841;50.252;18.688;2023-05-10T03:26:56;17.00;;;9.63;;
36923;SDS011;22841;50.252;18.688;2023-05-10T03:29:27;19.20;;;10.40;;
36923;SDS011;22841;50.252;18.688;2023-05-10T03:31:55;15.45;;;9.35;;
36923;SDS011;22841;50.252;18.688;2023-05-10T03:34:24;19.15;;;9.65;;
36923;SDS011;22841;50.252;18.688;2023-05-10T03:36:50;26.13;;;9.80;;
36923;SDS011;22841;50.252;18.688;2023-05-10T03:39:16;15.15;;;9.05;;
36923;SDS011;22841;50.252;18.688;2023-05-10T03:41:42;23.30;;;9.75;;
36923;SDS011;22841;50.252;18.688;2023-05-10T03:44:08;14.90;;;8.63;;
36923;SDS011;22841;50.252;18.688;2023-05-10T03:46:34;18.25;;;9.40;;
36923;SDS011;22841;50.252;18.688;2023-05-10T03:49:00;15.15;;;8.93;;
36923;SDS011;22841;50.252;18.688;2023-05-10T03:51:26;15.98;;;9.70;;
36923;SDS011;22841;50.252;18.688;2023-05-10T03:53:54;19.20;;;9.65;;
36923;SDS011;22841;50.252;18.688;2023-05-10T03:56:20;15.65;;;9.50;;
36923;SDS011;22841;50.252;18.688;2023-05-10T03:58:47;15.98;;;9.88;;
36923;SDS011;22841;50.252;18.688;2023-05-10T04:01:13;18.70;;;11.32;;
36923;SDS011;22841;50.252;18.688;2023-05-10T04:03:40;19.95;;;9.85;;
36923;SDS011;22841;50.252;18.688;2023-05-10T04:06:06;19.88;;;9.07;;
36923;SDS011;22841;50.252;18.688;2023-05-10T04:08:34;17.02;;;9.30;;
36923;SDS011;22841;50.252;18.688;2023-05-10T04:11:07;19.58;;;9.85;;
36923;SDS011;22841;50.252;18.688;2023-05-10T04:13:35;18.15;;;9.13;;
36923;SDS011;22841;50.252;18.688;2023-05-10T04:16:01;18.05;;;9.13;;
36923;SDS011;22841;50.252;18.688;2023-05-10T04:18:27;17.08;;;9.25;;
36923;SDS011;22841;50.252;18.688;2023-05-10T04:20:54;17.13;;;9.85;;
36923;SDS011;22841;50.252;18.688;2023-05-10T04:23:20;25.20;;;11.00;;
36923;SDS011;22841;50.252;18.688;2023-05-10T04:25:46;15.77;;;8.90;;
36923;SDS011;22841;50.252;18.688;2023-05-10T04:28:12;17.27;;;10.07;;
36923;SDS011;22841;50.252;18.688;2023-05-10T04:30:38;16.55;;;9.10;;
36923;SDS011;22841;50.252;18.688;2023-05-10T04:33:04;18.58;;;10.43;;
36923;SDS011;22841;50.252;18.688;2023-05-10T04:35:30;13.80;;;8.68;;
36923;SDS011;22841;50.252;18.688;2023-05-10T04:37:56;13.35;;;8.48;;
36923;SDS011;22841;50.252;18.688;2023-05-10T04:40:22;17.90;;;8.25;;
36923;SDS011;22841;50.252;18.688;2023-05-10T04:42:48;16.83;;;8.50;;
36923;SDS011;22841;50.252;18.688;2023-05-10T04:45:14;13.50;;;8.40;;
36923;SDS011;22841;50.252;18.688;2023-05-10T04:47:40;20.48;;;10.13;;
36923;SDS011;22841;50.252;18.688;2023-05-10T04:50:07;17.00;;;8.75;;
36923;SDS011;22841;50.252;18.688;2023-05-10T04:52:33;17.77;;;8.82;;
36923;SDS011;22841;50.252;18.688;2023-05-10T04:54:59;15.38;;;8.68;;
36923;SDS011;22841;50.252;18.688;2023-05-10T04:57:25;16.10;;;8.27;;
36923;SDS011;22841;50.252;18.688;2023-05-10T04:59:51;15.10;;;9.10;;
36923;SDS011;22841;50.252;18.688;2023-05-10T05:02:18;15.27;;;8.65;;
36923;SDS011;22841;50.252;18.688;2023-05-10T05:04:44;17.27;;;8.98;;
36923;SDS011;22841;50.252;18.688;2023-05-10T05:07:10;16.00;;;9.70;;
36923;SDS011;22841;50.252;18.688;2023-05-10T05:09:36;15.82;;;8.23;;
36923;SDS011;22841;50.252;18.688;2023-05-10T05:12:02;21.80;;;8.18;;
36923;SDS011;22841;50.252;18.688;2023-05-10T05:14:28;19.42;;;9.35;;
36923;SDS011;22841;50.252;18.688;2023-05-10T05:16:54;61.65;;;9.18;;
36923;SDS011;22841;50.252;18.688;2023-05-10T05:19:21;17.42;;;9.02;;
36923;SDS011;22841;50.252;18.688;2023-05-10T05:21:47;36.33;;;9.63;;
36923;SDS011;22841;50.252;18.688;2023-05-10T05:24:15;15.52;;;7.90;;
36923;SDS011;22841;50.252;18.688;2023-05-10T05:26:41;52.25;;;10.48;;
36923;SDS011;22841;50.252;18.688;2023-05-10T05:29:07;12.90;;;7.72;;
36923;SDS011;22841;50.252;18.688;2023-05-10T05:31:33;14.95;;;7.90;;
36923;SDS011;22841;50.252;18.688;2023-05-10T05:33:59;12.57;;;7.25;;
36923;SDS011;22841;50.252;18.688;2023-05-10T05:36:25;14.48;;;6.50;;
36923;SDS011;22841;50.252;18.688;2023-05-10T05:38:51;19.48;;;7.53;;
36923;SDS011;22841;50.252;18.688;2023-05-10T05:41:17;16.50;;;7.45;;
36923;SDS011;22841;50.252;18.688;2023-05-10T05:43:43;53.15;;;9.95;;
36923;SDS011;22841;50.252;18.688;2023-05-10T05:46:09;21.30;;;7.57;;
36923;SDS011;22841;50.252;18.688;2023-05-10T05:48:35;64.32;;;10.32;;
36923;SDS011;22841;50.252;18.688;2023-05-10T05:51:01;15.45;;;7.30;;
36923;SDS011;22841;50.252;18.688;2023-05-10T05:53:28;25.23;;;8.27;;
36923;SDS011;22841;50.252;18.688;2023-05-10T05:55:55;18.33;;;7.70;;
36923;SDS011;22841;50.252;18.688;2023-05-10T05:58:23;12.50;;;6.95;;
36923;SDS011;22841;50.252;18.688;2023-05-10T06:00:50;12.30;;;7.57;;
36923;SDS011;22841;50.252;18.688;2023-05-10T06:03:19;136.25;;;13.05;;
36923;SDS011;22841;50.252;18.688;2023-05-10T06:05:46;24.83;;;8.40;;
36923;SDS011;22841;50.252;18.688;2023-05-10T06:08:12;50.95;;;9.15;;
36923;SDS011;22841;50.252;18.688;2023-05-10T06:10:38;11.75;;;7.35;;
36923;SDS011;22841;50.252;18.688;2023-05-10T06:13:04;15.77;;;7.30;;
36923;SDS011;22841;50.252;18.688;2023-05-10T06:15:30;9.70;;;6.82;;
36923;SDS011;22841;50.252;18.688;2023-05-10T06:17:57;9.38;;;6.75;;
36923;SDS011;22841;50.252;18.688;2023-05-10T06:20:24;14.45;;;6.95;;
36923;SDS011;22841;50.252;18.688;2023-05-10T06:22:50;13.48;;;7.53;;
36923;SDS011;22841;50.252;18.688;2023-05-10T06:25:16;12.45;;;7.47;;
36923;SDS011;22841;50.252;18.688;2023-05-10T06:27:43;11.07;;;6.68;;
36923;SDS011;22841;50.252;18.688;2023-05-10T06:30:10;9.18;;;6.43;;
36923;SDS011;22841;50.252;18.688;2023-05-10T06:32:38;14.00;;;6.10;;
36923;SDS011;22841;50.252;18.688;2023-05-10T06:35:04;14.45;;;6.70;;
36923;SDS011;22841;50.252;18.688;2023-05-10T06:37:31;10.52;;;5.93;;
36923;SDS011;22841;50.252;18.688;2023-05-10T06:39:57;13.65;;;6.38;;
36923;SDS011;22841;50.252;18.688;2023-05-10T06:42:23;16.10;;;6.10;;
36923;SDS011;22841;50.252;18.688;2023-05-10T06:44:51;20.55;;;6.70;;
36923;SDS011;22841;50.252;18.688;2023-05-10T06:47:17;11.20;;;6.00;;
36923;SDS011;22841;50.252;18.688;2023-05-10T06:49:43;9.15;;;4.50;;
36923;SDS011;22841;50.252;18.688;2023-05-10T06:52:09;10.70;;;4.68;;
36923;SDS011;22841;50.252;18.688;2023-05-10T06:54:35;10.93;;;4.68;;
36923;SDS011;22841;50.252;18.688;2023-05-10T06:57:01;7.68;;;4.70;;
36923;SDS011;22841;50.252;18.688;2023-05-10T06:59:28;9.82;;;4.00;;
36923;SDS011;22841;50.252;18.688;2023-05-10T07:01:54;6.20;;;3.83;;
36923;SDS011;22841;50.252;18.688;2023-05-10T07:04:20;7.18;;;4.45;;
36923;SDS011;22841;50.252;18.688;2023-05-10T07:06:46;10.07;;;4.40;;
36923;SDS011;22841;50.252;18.688;2023-05-10T07:09:12;8.63;;;4.32;;
36923;SDS011;22841;50.252;18.688;2023-05-10T07:11:38;11.27;;;3.65;;
36923;SDS011;22841;50.252;18.688;2023-05-10T07:14:05;12.50;;;3.95;;
36923;SDS011;22841;50.252;18.688;2023-05-10T07:16:31;5.00;;;3.95;;
36923;SDS011;22841;50.252;18.688;2023-05-10T07:18:57;9.00;;;4.30;;
36923;SDS011;22841;50.252;18.688;2023-05-10T07:21:23;19.60;;;4.40;;
36923;SDS011;22841;50.252;18.688;2023-05-10T07:23:49;8.57;;;4.07;;
36923;SDS011;22841;50.252;18.688;2023-05-10T07:26:15;6.35;;;3.50;;
36923;SDS011;22841;50.252;18.688;2023-05-10T07:28:42;7.93;;;3.92;;
36923;SDS011;22841;50.252;18.688;2023-05-10T07:31:08;10.93;;;4.28;;
36923;SDS011;22841;50.252;18.688;2023-05-10T07:33:34;9.25;;;4.05;;
36923;SDS011;22841;50.252;18.688;2023-05-10T07:36:00;9.00;;;3.55;;
36923;SDS011;22841;50.252;18.688;2023-05-10T07:38:26;7.90;;;3.70;;
36923;SDS011;22841;50.252;18.688;2023-05-10T07:40:52;6.25;;;3.88;;
36923;SDS011;22841;50.252;18.688;2023-05-10T07:43:18;11.13;;;3.60;;
36923;SDS011;22841;50.252;18.688;2023-05-10T07:45:44;4.10;;;3.70;;
36923;SDS011;22841;50.252;18.688;2023-05-10T07:48:10;5.45;;;3.13;;
36923;SDS011;22841;50.252;18.688;2023-05-10T07:50:36;14.15;;;4.13;;
36923;SDS011;22841;50.252;18.688;2023-05-10T07:53:02;6.55;;;3.45;;
36923;SDS011;22841;50.252;18.688;2023-05-10T07:55:28;13.23;;;4.43;;
36923;SDS011;22841;50.252;18.688;2023-05-10T07:57:55;8.50;;;4.07;;
36923;SDS011;22841;50.252;18.688;2023-05-10T08:00:21;6.65;;;4.03;;
36923;SDS011;22841;50.252;18.688;2023-05-10T08:02:47;6.93;;;3.40;;
36923;SDS011;22841;50.252;18.688;2023-05-10T08:05:13;4.45;;;3.58;;
36923;SDS011;22841;50.252;18.688;2023-05-10T08:07:39;6.13;;;3.38;;
36923;SDS011;22841;50.252;18.688;2023-05-10T08:10:06;7.20;;;3.50;;
36923;SDS011;22841;50.252;18.688;2023-05-10T08:12:33;6.93;;;3.50;;
36923;SDS011;22841;50.252;18.688;2023-05-10T08:14:59;10.18;;;3.72;;
36923;SDS011;22841;50.252;18.688;2023-05-10T08:17:25;5.70;;;3.28;;
36923;SDS011;22841;50.252;18.688;2023-05-10T08:19:51;28.15;;;4.00;;
36923;SDS011;22841;50.252;18.688;2023-05-10T08:22:17;5.78;;;3.22;;
36923;SDS011;22841;50.252;18.688;2023-05-10T08:24:43;17.33;;;3.95;;
36923;SDS011;22841;50.252;18.688;2023-05-10T08:27:09;5.68;;;2.95;;
36923;SDS011;22841;50.252;18.688;2023-05-10T08:29:35;29.60;;;4.55;;
36923;SDS011;22841;50.252;18.688;2023-05-10T08:32:03;21.60;;;3.28;;
36923;SDS011;22841;50.252;18.688;2023-05-10T08:34:29;119.65;;;7.97;;
36923;SDS011;22841;50.252;18.688;2023-05-10T08:36:56;35.72;;;4.75;;
36923;SDS011;22841;50.252;18.688;2023-05-10T08:39:22;12.48;;;4.15;;
36923;SDS011;22841;50.252;18.688;2023-05-10T08:41:48;7.18;;;3.10;;
36923;SDS011;22841;50.252;18.688;2023-05-10T08:44:17;6.50;;;3.55;;
36923;SDS011;22841;50.252;18.688;2023-05-10T08:46:45;5.55;;;3.13;;
36923;SDS011;22841;50.252;18.688;2023-05-10T08:49:16;19.70;;;3.40;;
36923;SDS011;22841;50.252;18.688;2023-05-10T08:51:44;7.95;;;3.00;;
36923;SDS011;22841;50.252;18.688;2023-05-10T08:54:15;4.32;;;3.22;;
36923;SDS011;22841;50.252;18.688;2023-05-10T08:56:41;25.67;;;4.65;;
36923;SDS011;22841;50.252;18.688;2023-05-10T08:59:07;5.25;;;3.05;;
36923;SDS011;22841;50.252;18.688;2023-05-10T09:01:35;19.48;;;3.53;;
36923;SDS011;22841;50.252;18.688;2023-05-10T09:04:02;4.45;;;3.40;;
36923;SDS011;22841;50.252;18.688;2023-05-10T09:06:29;7.28;;;3.00;;
36923;SDS011;22841;50.252;18.688;2023-05-10T09:08:55;4.03;;;3.25;;
36923;SDS011;22841;50.252;18.688;2023-05-10T09:11:21;4.90;;;3.25;;
36923;SDS011;22841;50.252;18.688;2023-05-10T09:13:48;9.25;;;3.20;;
36923;SDS011;22841;50.252;18.688;2023-05-10T09:16:17;10.75;;;3.00;;
36923;SDS011;22841;50.252;18.688;2023-05-10T09:18:43;4.13;;;2.63;;
36923;SDS011;22841;50.252;18.688;2023-05-10T09:21:09;5.95;;;2.60;;
36923;SDS011;22841;50.252;18.688;2023-05-10T09:23:36;4.85;;;2.65;;
36923;SDS011;22841;50.252;18.688;2023-05-10T09:26:06;10.60;;;2.92;;
36923;SDS011;22841;50.252;18.688;2023-05-10T09:31:19;5.82;;;3.17;;
36923;SDS011;22841;50.252;18.688;2023-05-10T09:33:48;113.75;;;9.55;;
36923;SDS011;22841;50.252;18.688;2023-05-10T09:36:15;8.18;;;2.85;;
36923;SDS011;22841;50.252;18.688;2023-05-10T09:38:47;22.00;;;3.90;;
36923;SDS011;22841;50.252;18.688;2023-05-10T09:41:15;4.68;;;2.92;;
36923;SDS011;22841;50.252;18.688;2023-05-10T09:43:46;4.30;;;3.15;;
36923;SDS011;22841;50.252;18.688;2023-05-10T09:46:12;4.90;;;2.45;;
36923;SDS011;22841;50.252;18.688;2023-05-10T09:48:40;5.57;;;2.97;;
36923;SDS011;22841;50.252;18.688;2023-05-10T09:51:19;23.67;;;3.72;;
36923;SDS011;22841;50.252;18.688;2023-05-10T09:53:47;12.00;;;3.00;;
36923;SDS011;22841;50.252;18.688;2023-05-10T09:56:13;7.97;;;3.28;;
36923;SDS011;22841;50.252;18.688;2023-05-10T09:58:40;6.88;;;3.00;;
36923;SDS011;22841;50.252;18.688;2023-05-10T10:01:10;4.78;;;2.95;;
36923;SDS011;22841;50.252;18.688;2023-05-10T10:03:41;3.45;;;2.30;;
36923;SDS011;22841;50.252;18.688;2023-05-10T10:06:08;5.00;;;2.72;;
36923;SDS011;22841;50.252;18.688;2023-05-10T10:08:34;4.80;;;2.50;;
36923;SDS011;22841;50.252;18.688;2023-05-10T10:11:00;5.32;;;2.88;;
36923;SDS011;22841;50.252;18.688;2023-05-10T10:13:27;6.05;;;2.83;;
36923;SDS011;22841;50.252;18.688;2023-05-10T10:15:54;4.18;;;2.53;;
36923;SDS011;22841;50.252;18.688;2023-05-10T10:18:20;5.82;;;2.90;;
36923;SDS011;22841;50.252;18.688;2023-05-10T10:20:52;3.33;;;2.63;;
36923;SDS011;22841;50.252;18.688;2023-05-10T10:23:20;4.15;;;2.70;;
36923;SDS011;22841;50.252;18.688;2023-05-10T10:25:46;8.75;;;2.95;;
36923;SDS011;22841;50.252;18.688;2023-05-10T10:28:31;8.70;;;3.10;;
36923;SDS011;22841;50.252;18.688;2023-05-10T10:31:12;8.20;;;2.75;;
36923;SDS011;22841;50.252;18.688;2023-05-10T10:34:09;4.78;;;3.15;;
36923;SDS011;22841;50.252;18.688;2023-05-10T10:36:45;3.90;;;2.80;;
36923;SDS011;22841;50.252;18.688;2023-05-10T10:39:12;8.85;;;3.28;;
36923;SDS011;22841;50.252;18.688;2023-05-10T10:41:40;7.38;;;2.70;;
36923;SDS011;22841;50.252;18.688;2023-05-10T10:52:31;6.55;;;2.70;;
36923;SDS011;22841;50.252;18.688;2023-05-10T10:55:03;4.03;;;3.28;;
36923;SDS011;22841;50.252;18.688;2023-05-10T11:00:23;10.55;;;3.13;;
36923;SDS011;22841;50.252;18.688;2023-05-10T11:02:57;6.22;;;3.10;;
36923;SDS011;22841;50.252;18.688;2023-05-10T11:08:10;17.35;;;3.53;;
36923;SDS011;22841;50.252;18.688;2023-05-10T11:10:49;6.45;;;2.72;;
36923;SDS011;22841;50.252;18.688;2023-05-10T11:13:21;3.65;;;2.17;;
36923;SDS011;22841;50.252;18.688;2023-05-10T11:15:59;5.00;;;2.70;;
36923;SDS011;22841;50.252;18.688;2023-05-10T11:18:36;7.32;;;3.28;;
36923;SDS011;22841;50.252;18.688;2023-05-10T11:21:02;4.85;;;2.78;;
36923;SDS011;22841;50.252;18.688;2023-05-10T11:23:31;17.73;;;3.38;;
36923;SDS011;22841;50.252;18.688;2023-05-10T11:26:12;5.05;;;2.80;;
36923;SDS011;22841;50.252;18.688;2023-05-10T11:28:47;7.57;;;2.85;;
36923;SDS011;22841;50.252;18.688;2023-05-10T11:31:14;9.73;;;2.88;;
36923;SDS011;22841;50.252;18.688;2023-05-10T11:33:45;4.38;;;2.63;;
36923;SDS011;22841;50.252;18.688;2023-05-10T11:36:25;4.80;;;2.83;;
36923;SDS011;22841;50.252;18.688;2023-05-10T11:38:53;7.68;;;3.72;;
36923;SDS011;22841;50.252;18.688;2023-05-10T11:41:20;5.90;;;2.80;;
36923;SDS011;22841;50.252;18.688;2023-05-10T11:43:48;18.70;;;3.50;;
36923;SDS011;22841;50.252;18.688;2023-05-10T11:46:16;8.40;;;3.42;;
36923;SDS011;22841;50.252;18.688;2023-05-10T11:48:49;4.63;;;3.08;;
36923;SDS011;22841;50.252;18.688;2023-05-10T11:51:19;11.18;;;3.28;;
36923;SDS011;22841;50.252;18.688;2023-05-10T11:53:50;9.18;;;3.08;;
36923;SDS011;22841;50.252;18.688;2023-05-10T11:56:18;41.28;;;4.40;;
36923;SDS011;22841;50.252;18.688;2023-05-10T11:58:51;4.55;;;2.97;;
36923;SDS011;22841;50.252;18.688;2023-05-10T12:01:22;3.47;;;2.90;;
36923;SDS011;22841;50.252;18.688;2023-05-10T12:03:49;11.48;;;2.58;;
36923;SDS011;22841;50.252;18.688;2023-05-10T12:06:17;28.52;;;3.53;;
36923;SDS011;22841;50.252;18.688;2023-05-10T12:08:45;4.28;;;2.83;;
36923;SDS011;22841;50.252;18.688;2023-05-10T12:11:12;21.33;;;3.20;;
36923;SDS011;22841;50.252;18.688;2023-05-10T12:13:43;6.50;;;3.03;;
36923;SDS011;22841;50.252;18.688;2023-05-10T12:16:17;6.70;;;2.25;;
36923;SDS011;22841;50.252;18.688;2023-05-10T12:18:44;4.68;;;3.05;;
36923;SDS011;22841;50.252;18.688;2023-05-10T12:21:11;4.68;;;2.85;;
36923;SDS011;22841;50.252;18.688;2023-05-10T12:23:38;7.60;;;2.28;;
36923;SDS011;22841;50.252;18.688;2023-05-10T12:26:05;10.13;;;2.67;;
36923;SDS011;22841;50.252;18.688;2023-05-10T12:28:32;15.07;;;2.95;;
36923;SDS011;22841;50.252;18.688;2023-05-10T12:31:01;3.45;;;2.47;;
36923;SDS011;22841;50.252;18.688;2023-05-10T12:33:35;9.00;;;2.47;;
36923;SDS011;22841;50.252;18.688;2023-05-10T12:36:11;74.55;;;6.15;;
36923;SDS011;22841;50.252;18.688;2023-05-10T12:38:42;4.07;;;2.27;;
36923;SDS011;22841;50.252;18.688;2023-05-10T12:41:10;24.00;;;3.10;;
36923;SDS011;22841;50.252;18.688;2023-05-10T12:43:38;45.65;;;4.05;;
36923;SDS011;22841;50.252;18.688;2023-05-10T12:46:09;10.18;;;2.70;;
36923;SDS011;22841;50.252;18.688;2023-05-10T12:48:41;39.95;;;4.07;;
36923;SDS011;22841;50.252;18.688;2023-05-10T12:51:08;11.75;;;2.50;;
36923;SDS011;22841;50.252;18.688;2023-05-10T12:53:37;13.68;;;2.83;;
36923;SDS011;22841;50.252;18.688;2023-05-10T12:56:04;19.15;;;3.55;;
36923;SDS011;22841;50.252;18.688;2023-05-10T12:58:30;43.55;;;4.60;;
36923;SDS011;22841;50.252;18.688;2023-05-10T13:00:57;13.10;;;2.97;;
36923;SDS011;22841;50.252;18.688;2023-05-10T13:03:24;6.03;;;2.80;;
36923;SDS011;22841;50.252;18.688;2023-05-10T13:05:50;68.97;;;5.95;;
36923;SDS011;22841;50.252;18.688;2023-05-10T13:08:16;13.60;;;3.13;;
36923;SDS011;22841;50.252;18.688;2023-05-10T13:10:42;5.75;;;2.78;;
36923;SDS011;22841;50.252;18.688;2023-05-10T13:13:09;7.55;;;2.33;;
36923;SDS011;22841;50.252;18.688;2023-05-10T13:15:35;26.02;;;3.05;;
36923;SDS011;22841;50.252;18.688;2023-05-10T13:18:01;10.23;;;2.30;;
36923;SDS011;22841;50.252;18.688;2023-05-10T13:20:27;11.00;;;2.53;;
36923;SDS011;22841;50.252;18.688;2023-05-10T13:22:53;43.90;;;4.75;;
36923;SDS011;22841;50.252;18.688;2023-05-10T13:25:19;32.28;;;5.28;;
36923;SDS011;22841;50.252;18.688;2023-05-10T13:27:46;11.98;;;2.72;;
36923;SDS011;22841;50.252;18.688;2023-05-10T13:30:12;75.88;;;6.60;;
36923;SDS011;22841;50.252;18.688;2023-05-10T13:32:38;6.85;;;2.63;;
36923;SDS011;22841;50.252;18.688;2023-05-10T13:35:04;11.88;;;2.55;;
36923;SDS011;22841;50.252;18.688;2023-05-10T13:37:32;21.65;;;3.25;;
36923;SDS011;22841;50.252;18.688;2023-05-10T13:40:02;4.70;;;2.28;;
36923;SDS011;22841;50.252;18.688;2023-05-10T13:42:29;5.82;;;2.58;;
36923;SDS011;22841;50.252;18.688;2023-05-10T13:44:57;5.25;;;2.55;;
36923;SDS011;22841;50.252;18.688;2023-05-10T13:47:23;2.13;;;1.92;;
36923;SDS011;22841;50.252;18.688;2023-05-10T13:49:49;2.20;;;2.00;;
36923;SDS011;22841;50.252;18.688;2023-05-10T13:52:15;8.27;;;3.28;;
36923;SDS011;22841;50.252;18.688;2023-05-10T13:54:41;8.68;;;2.45;;
36923;SDS011;22841;50.252;18.688;2023-05-10T13:57:07;21.75;;;4.10;;
36923;SDS011;22841;50.252;18.688;2023-05-10T13:59:34;3.33;;;2.50;;
36923;SDS011;22841;50.252;18.688;2023-05-10T14:02:00;2.80;;;2.45;;
36923;SDS011;22841;50.252;18.688;2023-05-10T14:04:29;4.18;;;2.30;;
36923;SDS011;22841;50.252;18.688;2023-05-10T14:06:56;14.07;;;2.55;;
36923;SDS011;22841;50.252;18.688;2023-05-10T14:09:22;22.00;;;3.55;;
36923;SDS011;22841;50.252;18.688;2023-05-10T14:11:48;3.83;;;2.38;;
36923;SDS011;22841;50.252;18.688;2023-05-10T14:14:14;7.63;;;2.20;;
36923;SDS011;22841;50.252;18.688;2023-05-10T14:16:42;6.43;;;3.25;;
36923;SDS011;22841;50.252;18.688;2023-05-10T14:19:09;3.17;;;2.20;;
36923;SDS011;22841;50.252;18.688;2023-05-10T14:21:35;5.43;;;2.15;;
36923;SDS011;22841;50.252;18.688;2023-05-10T14:24:01;4.35;;;2.20;;
36923;SDS011;22841;50.252;18.688;2023-05-10T14:26:28;57.28;;;5.45;;
36923;SDS011;22841;50.252;18.688;2023-05-10T14:28:54;6.82;;;2.20;;
36923;SDS011;22841;50.252;18.688;2023-05-10T14:31:20;2.60;;;2.10;;
36923;SDS011;22841;50.252;18.688;2023-05-10T14:33:46;4.43;;;1.90;;
36923;SDS011;22841;50.252;18.688;2023-05-10T14:36:13;20.83;;;2.85;;
36923;SDS011;22841;50.252;18.688;2023-05-10T14:38:39;7.88;;;3.38;;
36923;SDS011;22841;50.252;18.688;2023-05-10T14:41:06;39.08;;;4.10;;
36923;SDS011;22841;50.252;18.688;2023-05-10T14:43:32;37.35;;;3.92;;
36923;SDS011;22841;50.252;18.688;2023-05-10T14:45:58;4.15;;;2.40;;
36923;SDS011;22841;50.252;18.688;2023-05-10T14:48:24;29.40;;;3.58;;
36923;SDS011;22841;50.252;18.688;2023-05-10T14:50:50;6.03;;;2.33;;
36923;SDS011;22841;50.252;18.688;2023-05-10T14:53:18;8.52;;;3.20;;
36923;SDS011;22841;50.252;18.688;2023-05-10T14:55:44;5.93;;;2.45;;
36923;SDS011;22841;50.252;18.688;2023-05-10T14:58:10;21.85;;;3.20;;
36923;SDS011;22841;50.252;18.688;2023-05-10T15:00:36;19.27;;;2.67;;